2015 Witch's Hat

back to results

Sep. 12, 2015

2015 Witch's Hat
South Lyon, MI
Provided by Rotpac Racing, L.L.C.


Witch's Hat Run
Age Group Results
September 12, 2015
Results By Rotpac Racing

5K Walk
Male Open Winners

Place Name City Age Overall Total Time Pace
1 Unknown Partic. 798 1 26:52.0 8:38/M

Male Masters Winners

Place Name City Age Overall Total Time Pace
1 Bryan Tomko 40 3 41:25.6 13:19/M

Male 55 to 59

Place Name City Age Overall Total Time Pace
1 Dan Pardy 57 6 42:56.7 13:48/M

Female Open Winners

Place Name City Age Overall Total Time Pace
1 Bonnie Tura 52 2 40:02.0 12:52/M

Female Masters Winners

Place Name City Age Overall Total Time Pace
1 Sharon Curry 40 5 41:53.1 13:28/M

Female 30 to 34

Place Name City Age Overall Total Time Pace
1 Alexandra Clark 30 12 45:41.4 14:41/M

Female 35 to 39

Place Name City Age Overall Total Time Pace
1 Jennifer Tomko 38 4 41:25.7 13:19/M
2 Laura Rozek Pinckney MI 37 7 42:56.7 13:48/M

Female 50 to 54

Place Name City Age Overall Total Time Pace
1 Barb Penkevich 51 9 43:08.8 13:52/M
2 Loraine Cooney 50 14 46:31.0 14:57/M

Female 55 to 59

Place Name City Age Overall Total Time Pace
1 Mary Clark 55 13 45:41.9 14:41/M

Female 60 to 64

Place Name City Age Overall Total Time Pace
1 Cheryl Daniels 62 8 43:08.1 13:52/M
2 Luann Totton Brighton MI 62 10 43:09.3 13:52/M

Female 65 to 69

Place Name City Age Overall Total Time Pace
1 Susan Waisanen 65 15 48:54.4 15:43/M

Female 75 to 79

Place Name City Age Overall Total Time Pace
1 Shirley Ratkus 75 11 44:37.5 14:21/M

5K Run
Male Open Winners

Place Name City Age Overall Total Time Pace
1 Fouad Abdole Grand Blanc MI 20 1 16:37.1 5:21/M

Male Masters Winners

Place Name City Age Overall Total Time Pace
1 David Burkhart 61 3 18:20.0 5:54/M

Male 12 and Under

Place Name City Age Overall Total Time Pace
1 Joe Wolak 11 26 22:36.7 7:16/M
2 Christian Dimitriou 12 31 23:25.1 7:32/M
3 Jack Hogle South Lyon MI 11 36 23:47.7 7:39/M
4 Nolan Karfonta 9 44 24:45.3 7:57/M
5 Dylan Hoorn 12 50 25:12.2 8:06/M
6 Nick Pelletier 12 58 26:02.1 8:22/M
7 Brian Swegles 12 77 27:31.6 8:51/M
8 Dominic Foytek South Lyon MI 12 79 27:46.7 8:56/M
9 Alex Liddell South Lyon MI 12 80 27:47.2 8:56/M
10 Cameron Cavicchiolo 10 97 30:00.9 9:39/M
11 Evan Swank 12 116 31:45.6 10:13/M
12 Charlie Maguire 6 129 35:09.4 11:18/M
13 Nathan Schang 9 141 36:18.8 11:40/M
14 Kyle Schang 11 158 41:30.8 13:21/M

Male 13 to 15

Place Name City Age Overall Total Time Pace
1 Jacob London 15 12 21:19.1 6:51/M
2 Gavin Hovey 15 14 21:21.7 6:52/M
3 Haden Gallentine 14 16 21:27.2 6:54/M
4 Jacob Tabatowski-Bush 15 21 22:10.4 7:08/M
5 Braden Heiler 15 22 22:11.6 7:08/M
6 Ryan Tippy 13 23 22:24.0 7:12/M
7 Josh Myerink 14 24 22:26.8 7:13/M
8 Doug McClure 14 29 22:53.9 7:21/M
9 Ian Gesler 14 32 23:25.2 7:32/M
10 Ethan Poet 14 39 24:09.4 7:46/M
11 Alec Demoss 13 41 24:27.6 7:52/M
12 Osip Surdutovich 13 48 25:01.3 8:03/M
13 Alex Nelson 13 52 25:27.2 8:11/M
14 Matt Brake 14 53 25:27.3 8:11/M
15 Owen Leshok 13 55 25:39.0 8:15/M
16 Alex Hamann 13 56 25:53.7 8:19/M
17 Joseph Curtis 14 68 26:37.4 8:34/M
18 Noah Bruner 13 126 33:14.9 10:41/M
19 Andrew Liskey 14 151 39:54.0 12:50/M
20 Anthony Kloeckner 14 153 40:21.9 12:58/M

Male 16 to 19

Place Name City Age Overall Total Time Pace
1 Evan Demoss 18 15 21:24.1 6:53/M
2 Cameron Kurzeja South Lyon MI 18 18 21:31.2 6:55/M
3 Adam Leshok 16 35 23:39.1 7:36/M
4 Spencer Hoffman 16 73 27:08.8 8:43/M
5 Nikolas Dimitriou 16 138 36:03.4 11:35/M
6 David Dallege 16 159 41:31.6 13:21/M
7 Bryan Cooney 17 164 46:30.7 14:57/M

Male 20 to 24

Place Name City Age Overall Total Time Pace
1 David Powers Farmington MI 23 2 17:51.2 5:44/M
2 David Hansen 23 7 20:31.7 6:36/M
3 Noah Klevering 22 95 29:43.1 9:33/M

Male 25 to 29

Place Name City Age Overall Total Time Pace
1 Ryan Fisher 28 10 20:59.2 6:45/M
2 Mills Dewey 26 19 21:56.6 7:03/M
3 Adam Peruski-Smith 28 25 22:28.0 7:13/M
4 Ryan Smith Commerce Township MI 28 71 26:53.4 8:39/M
5 Corey McCue 26 108 30:51.9 9:55/M
6 Brad Clemons Royal Oak MI 28 156 41:28.2 13:20/M

Male 30 to 34

Place Name City Age Overall Total Time Pace
1 Brenton Montie 30 17 21:28.4 6:54/M
2 Don McIntosh 32 30 23:12.0 7:28/M
3 Brian J Hewitt 30 42 24:38.4 7:55/M
4 Keith McCaffery 31 64 26:23.6 8:29/M

Male 35 to 39

Place Name City Age Overall Total Time Pace
1 Bobby Klemmer South Lyon MI 37 4 18:39.8 6:00/M
2 Robert Thormeier 36 8 20:51.0 6:42/M
3 Mike Whitinl Wixom MI 36 13 21:19.9 6:51/M
4 Joseph Freeman 36 100 30:05.5 9:40/M

Male 40 to 44

Place Name City Age Overall Total Time Pace
1 Patrick Clark South Lyon MI 43 6 20:26.7 6:34/M
2 Jeff Klevering 44 33 23:28.9 7:33/M
3 Matthew Brostrom 44 40 24:18.7 7:49/M
4 Nick Karfonta 42 45 24:45.5 7:57/M
5 Timothy Kero 41 104 30:46.2 9:54/M
6 Ryan Bruner 42 125 33:08.3 10:39/M

Male 45 to 49

Place Name City Age Overall Total Time Pace
1 Matt Barnes 46 11 20:59.7 6:45/M
2 Drake Stalions 47 38 24:07.4 7:45/M
3 Mark Skiff 45 46 24:48.3 7:58/M
4 Mauro Marconcin 45 57 25:54.7 8:20/M
5 Mike Perovich 45 59 26:15.8 8:26/M
6 David Tippy 47 66 26:30.6 8:31/M
7 Patrick Seaver South Lyon MI 48 84 28:12.4 9:04/M
8 Christopher Bak 47 91 29:09.3 9:22/M
9 Colin Chisholm South Lyon MI 48 96 29:59.3 9:38/M
10 Sean Harmon 47 107 30:50.4 9:55/M
11 Joseph Cavicchiolo 45 110 31:09.8 10:01/M
12 Brian Zaharia 49 154 41:04.6 13:12/M

Male 50 to 54

Place Name City Age Overall Total Time Pace
1 Scott Swain New Hudson MI 54 9 20:55.0 6:44/M
2 Roger Burgess 53 43 24:41.7 7:56/M
3 Todd Stone 52 61 26:17.4 8:27/M
4 Jim Kuzara South Lyon MI 54 94 29:40.1 9:32/M
5 John Schnitzel 52 115 31:38.7 10:10/M
6 Chris Sadler 53 122 32:23.7 10:25/M
7 Tim Kolling Dearborn Heights MI 54 124 32:59.1 10:36/M

Male 55 to 59

Place Name City Age Overall Total Time Pace
1 Edward Carmichael 57 27 22:44.7 7:19/M
2 John McCracken 57 54 25:38.1 8:15/M
3 Greg Palarski 56 70 26:53.3 8:39/M
4 Brian Perion South Lyon MI 56 118 31:54.9 10:15/M
5 Ed Roney 55 140 36:16.0 11:40/M

Male 60 to 64

Place Name City Age Overall Total Time Pace
1 Kenneth McCaffery 61 5 20:09.9 6:29/M
2 Ron Stempihar Ann Arbor MI 63 37 23:51.0 7:40/M
3 Larry Coleman 64 81 27:52.4 8:58/M
4 Gary McCleish 64 103 30:41.0 9:52/M
5 Scott Wettlanfer South Lyon MI 61 120 32:11.0 10:21/M

Male 65 to 69

Place Name City Age Overall Total Time Pace
1 Mark Cryderman Milford MI 69 20 22:06.0 7:06/M
2 Ed King Whitmore Lake MI 67 67 26:31.9 8:32/M
3 Rob Weaver 69 101 30:11.3 9:42/M
4 Dennis Mattila Howell MI 68 127 33:27.5 10:45/M

Male 70 to 74

Place Name City Age Overall Total Time Pace
1 Steve Smith 71 148 39:01.9 12:33/M
2 Joseph Mancini 71 162 41:59.1 13:30/M

Male 75 to 79

Place Name City Age Overall Total Time Pace
1 Art Kitze Ann Arbor MI 76 106 30:47.0 9:54/M

Male 80 to 84

Place Name City Age Overall Total Time Pace
1 Hugh Sweeney Novi MI 84 135 35:34.1 11:26/M
2 Harrison Hensley Pinckney MI 83 155 41:13.2 13:15/M

Female Open Winners

Place Name City Age Overall Total Time Pace
1 Erin Stefanczak Walled Lake MI 38 28 22:45.4 7:19/M

Female Masters Winners

Place Name City Age Overall Total Time Pace
1 Cleusa Marconcin 42 60 26:15.9 8:26/M

Female 12 and Under

Place Name City Age Overall Total Time Pace
1 Shannon Seaver 11 62 26:18.1 8:27/M
2 Abigail Fox 12 74 27:13.1 8:45/M
3 Monica Vaughn South Lyon MI 09 92 29:15.9 9:24/M
4 Alina Schnitzel 10 113 31:37.8 10:10/M
5 Nadia Schnitzel 10 114 31:38.0 10:10/M
6 Kara Ziolowski 12 149 39:13.0 12:37/M
7 Brooke Ziolkowski 12 150 39:15.4 12:37/M
8 Kate Poet 8 166 51:00.6 16:24/M

Female 13 to 15

Place Name City Age Overall Total Time Pace
1 Olivia Dimitriou 14 117 31:49.2 10:14/M
2 Becky Dzienis 13 133 35:30.4 11:25/M
3 Megan Blades 13 134 35:30.6 11:25/M
4 Katelyn Schang 13 142 36:19.3 11:41/M

Female 20 to 24

Place Name City Age Overall Total Time Pace
1 Sally Barens 23 111 31:14.6 10:03/M
2 Kelsey Combs 21 145 36:56.6 11:53/M
3 Sydney Klevering 21 146 36:56.8 11:53/M

Female 25 to 29

Place Name City Age Overall Total Time Pace
1 Krissy Fisher 28 34 23:30.5 7:33/M
2 Chelsea Bijansky Walled Lake MI 25 51 25:13.6 8:06/M
3 Chelsea Acker Fenton MI 29 82 27:59.3 9:00/M
4 Ashley Voss 28 93 29:19.7 9:26/M
5 Dana Freeman 26 99 30:05.4 9:40/M
6 Whitney Alt 28 123 32:47.2 10:32/M
7 Angela Gallegos 29 131 35:16.3 11:20/M

Female 30 to 34

Place Name City Age Overall Total Time Pace
1 Jenni Kammer Brighton MI 34 47 24:59.9 8:02/M
2 Ellen Harrington 31 63 26:23.5 8:29/M
3 Joanne Brzys 30 69 26:41.6 8:35/M
4 Nicole Herbst 32 98 30:03.0 9:40/M

Female 35 to 39

Place Name City Age Overall Total Time Pace
1 Laura Carino 35 49 25:11.0 8:06/M
2 Lauren Thormeier 35 65 26:29.3 8:31/M
3 Ana Dora 37 90 29:03.6 9:20/M
4 Janice Kero 37 105 30:46.5 9:54/M
5 Hattie Maguire 37 132 35:21.0 11:22/M

Female 40 to 44

Place Name City Age Overall Total Time Pace
1 Cynthia Park Milford MI 43 78 27:43.8 8:55/M
2 Michelle Deboer 43 83 28:06.6 9:02/M
3 Pamala Alestra South Lyon MI 42 86 28:27.5 9:09/M
4 Lynn Watkins 43 87 28:58.9 9:19/M
5 Jennifer Smith South Lyon MI 44 88 29:01.4 9:20/M
6 Jobi Ellison South Lyon MI 41 89 29:01.5 9:20/M
7 Angela Dobbie 40 102 30:31.7 9:49/M
8 Barbara Cummings South Lyon MI 41 112 31:14.9 10:03/M
9 Paula Sulak 40 152 40:03.7 12:53/M
10 Jennifer Schang 42 160 41:32.9 13:21/M
11 Cindy Poet 44 165 51:00.5 16:24/M

Female 45 to 49

Place Name City Age Overall Total Time Pace
1 Rori Meyerink South Lyon MI 45 75 27:14.7 8:45/M
2 Kimberly Rienstra 47 85 28:22.2 9:07/M
3 Cynthia Chisholm 47 139 36:03.6 11:35/M

Female 50 to 54

Place Name City Age Overall Total Time Pace
1 Ann Marie Sadler 50 121 32:23.7 10:25/M
2 Kelly Zaharia 50 128 33:52.9 10:53/M
3 Wendy Wiseman South Lyon MI 52 130 35:13.0 11:19/M
4 Ruth Kloecker 50 143 36:22.5 11:42/M
5 Ann Baca South Lyon MI 54 147 38:12.5 12:17/M
6 Laurene Moncznik 52 157 41:29.4 13:20/M
7 Martha Henry 51 163 43:24.8 13:57/M
8 Nan Hansen Northville MI 53 167 56:56.8 18:18/M

Female 55 to 59

Place Name City Age Overall Total Time Pace
1 Debra McCracken 55 109 30:58.2 9:57/M
2 John Baca 55 119 32:06.7 10:19/M
3 Nancy Zerio 55 137 36:02.1 11:35/M
4 Marci Mulligan South Lyon MI 58 161 41:36.4 13:23/M

Female 60 to 64

Place Name City Age Overall Total Time Pace
1 Karen Burek Ann Arbor MI 62 72 26:57.4 8:40/M

Female 65 to 69

Place Name City Age Overall Total Time Pace
1 Cecilia Brzys 66 76 27:31.3 8:51/M
2 Kathy Veenstra South Lyon MI 68 136 35:59.7 11:34/M

Female 70 to 74

Place Name City Age Overall Total Time Pace
1 Marilyn Pobanz Ann Arbor MI 72 144 36:52.8 11:51/M

10K
Male Open Winners

Place Name City Age Overall Total Time Pace
1 Steve Menovcik Grand Ledge MI 46 1 37:11.7 5:59/M

Male Masters Winners

Place Name City Age Overall Total Time Pace
1 Matthew Sikora 42 6 38:29.3 6:12/M

Male 12 and Under

Place Name City Age Overall Total Time Pace
1 Zeb Swager Chelsea MI 10 51 48:37.8 7:50/M

Male 13 to 15

Place Name City Age Overall Total Time Pace
1 Xander Cronin 15 4 38:02.9 6:07/M
2 Joe Younkin 15 9 39:22.9 6:20/M
3 Max Hoorn 14 10 39:29.5 6:21/M
4 Josh Clark 15 15 41:14.8 6:38/M
5 Jack Marchand 14 18 41:31.7 6:41/M
6 Greg Jowett 15 22 42:33.3 6:51/M
7 Jonathan Allen 15 24 42:35.2 6:51/M
8 Evan Leslie 15 26 42:56.8 6:55/M
9 Connor Hudgens 14 29 43:35.0 7:01/M
10 Andrew Williams 15 32 44:32.5 7:10/M
11 Chris Sadler 15 41 46:26.2 7:29/M
12 Zach Wiseman 15 46 47:25.0 7:38/M
13 Kyle Haling 15 47 47:38.6 7:40/M
14 Nik Bauer 15 50 48:06.1 7:45/M
15 Kevin Liddell 14 53 49:09.7 7:55/M
16 Ryan Debruyne 15 65 53:12.4 8:34/M
17 Griffin Klevering 15 66 53:14.3 8:34/M
18 Vladimir Schnitzel 14 72 55:09.7 8:53/M

Male 16 to 19

Place Name City Age Overall Total Time Pace
1 Joshua Chezick 16 2 37:55.2 6:06/M
2 Marshall Thelen 17 5 38:04.4 6:08/M
3 Jerod Allen 17 7 38:54.9 6:16/M
4 Charles Marchand 17 8 39:15.3 6:19/M
5 Matt Myerink 17 13 40:58.5 6:36/M
6 Gus Aburto 16 16 41:15.1 6:39/M
7 Brian Harmon 17 17 41:17.6 6:39/M
8 Carter Reeds 16 19 41:47.8 6:44/M
9 Adam Lyons 17 20 42:15.3 6:48/M
10 Ethan Novilla 17 21 42:16.9 6:48/M
11 Aidan Fallon 17 25 42:46.5 6:53/M
12 Roy Swartinski 16 28 43:28.9 7:00/M
13 Adam Caruso 17 30 43:38.1 7:02/M
14 Valentin Schnitzel 16 33 44:35.4 7:11/M
15 Tyler Morgan South Lyon MI 17 37 46:03.6 7:25/M
16 Brett Wilson 16 40 46:25.8 7:28/M
17 Justin Carbary 17 42 46:26.6 7:29/M
18 Michael Brown Imlay City MI 17 45 47:17.0 7:37/M
19 Joseph Curtis 17 49 48:02.0 7:44/M
20 Jack Gomori 16 57 50:28.1 8:08/M
21 Zach Nurnberger 17 58 50:47.6 8:11/M
22 Louis Barati 16 73 55:46.3 8:59/M

Male 20 to 24

Place Name City Age Overall Total Time Pace
1 Alex Caruso 22 31 43:38.3 7:02/M

Male 25 to 29

Place Name City Age Overall Total Time Pace
1 Max McIlroy 25 3 37:55.4 6:06/M
2 Luke Voss 29 11 39:39.0 6:23/M

Male 30 to 34

Place Name City Age Overall Total Time Pace
1 Nile Schultz Ann Arbor MI 30 23 42:33.8 6:51/M
2 Rory Crittenden 33 36 45:59.9 7:24/M
3 Jacob Kaufman 32 81 58:24.2 9:24/M
4 Joe Schaffer 30 85 59:19.5 9:33/M

Male 35 to 39

Place Name City Age Overall Total Time Pace
1 Tony Trzaskos New Hudson MI 36 14 41:11.5 6:38/M
2 Don Chamberlin 39 39 46:20.3 7:28/M
3 Bobby Kaska 38 43 46:28.7 7:29/M
4 Tom Sventickas 35 60 51:18.7 8:16/M
5 Brent Kelley 38 80 57:54.9 9:19/M
6 Dan Plamondon Livonia MI 39 89 1:00:36.7 9:46/M

Male 40 to 44

Place Name City Age Overall Total Time Pace
1 Tobin Strong 40 52 49:09.4 7:55/M
2 Chris Kingsley 40 83 58:55.3 9:29/M

Male 45 to 49

Place Name City Age Overall Total Time Pace
1 Craig Peters 45 27 43:27.2 7:00/M
2 Steve MacGregor 45 34 44:50.8 7:13/M
3 Eugene Surdutovich 49 38 46:09.7 7:26/M
4 Ken Sprinkles 45 48 47:53.9 7:43/M
5 M Bransch 46 77 57:14.4 9:13/M

Male 50 to 54

Place Name City Age Overall Total Time Pace
1 Kent Symanzik 51 55 49:46.0 8:01/M
2 Mark Spencer Ann Arbor MI 53 63 52:30.8 8:27/M
3 Jeff Burgess Hartland MI 54 70 54:46.6 8:49/M
4 David Parks 50 75 56:28.9 9:06/M
5 Steven Zerio 54 82 58:26.2 9:25/M
6 Ron Hopp Ann Arbor MI 54 104 1:15:37.5 12:11/M

Male 55 to 59

Place Name City Age Overall Total Time Pace
1 Bruce Berndt Farmington MI 56 69 54:23.1 8:45/M

Male 60 to 64

Place Name City Age Overall Total Time Pace
1 Mark Van Netten South Lyon MI 63 44 46:52.6 7:33/M
2 Tom Rench Flushing MI 62 68 54:02.5 8:42/M

Male 65 to 69

Place Name City Age Overall Total Time Pace
1 Robert Harrison South Lyon MI 65 79 57:48.8 9:18/M
2 Mark London 66 90 1:01:16.6 9:52/M

Male 70 to 74

Place Name City Age Overall Total Time Pace
1 Lawrence Ratkus 74 76 56:50.4 9:09/M

Female Open Winners

Place Name City Age Overall Total Time Pace
1 Melissa Mantel 37 12 39:42.7 6:24/M

Female Masters Winners

Place Name City Age Overall Total Time Pace
1 Anne Symanzik 49 35 45:12.8 7:17/M

Female 16 to 19

Place Name City Age Overall Total Time Pace
1 Allison Harmala 16 93 1:02:42.0 10:06/M

Female 20 to 24

Place Name City Age Overall Total Time Pace
1 Laura Blacker 23 61 51:25.7 8:17/M

Female 25 to 29

Place Name City Age Overall Total Time Pace
1 Katalin Zerio 28 59 51:09.1 8:14/M
2 Jenna Schaffer 29 74 56:18.9 9:04/M

Female 30 to 34

Place Name City Age Overall Total Time Pace
1 Katie Rohrhoff 32 62 51:32.2 8:18/M
2 Andrea Hungerford 31 78 57:26.6 9:15/M
3 Ya-Ting Liang 33 84 59:01.8 9:30/M
4 Amy Crittenden 33 87 1:00:20.9 9:43/M
5 Sara Samuel 30 99 1:05:04.6 10:29/M
6 Katie Eschenburg 34 100 1:07:13.8 10:49/M
7 Katelyn Zasuwa 33 101 1:07:14.6 10:50/M

Female 35 to 39

Place Name City Age Overall Total Time Pace
1 Jessica Sickler 36 54 49:39.7 8:00/M
2 Elisabeth Rogerson Milan 37 67 53:48.4 8:40/M
3 Aimee Schauman 39 88 1:00:22.1 9:43/M

Female 40 to 44

Place Name City Age Overall Total Time Pace
1 Angela Chea 44 56 50:11.2 8:05/M
2 Tracy Feliks South Lyon MI 44 71 55:08.3 8:53/M
3 Susan Karczynski 42 91 1:01:29.9 9:54/M
4 Tami Cusumano 44 92 1:01:30.2 9:54/M
5 Erika Gallay-Macgregor 41 103 1:11:37.1 11:32/M
6 Marla McCowan 43 105 1:17:05.0 12:25/M

Female 45 to 49

Place Name City Age Overall Total Time Pace
1 Amy Beers 45 64 52:41.9 8:29/M

Female 50 to 54

Place Name City Age Overall Total Time Pace
1 Tammy Shelhart Howell MI 50 98 1:04:23.1 10:22/M

Female 55 to 59

Place Name City Age Overall Total Time Pace
1 Sue Roersma 58 86 1:00:09.6 9:41/M
2 Denise Garner Almont MI 57 94 1:03:29.2 10:13/M

Female 60 to 64

Place Name City Age Overall Total Time Pace
1 Cheryl Sorg 61 95 1:03:30.2 10:14/M
2 Colleen Bayoff 61 102 1:10:25.9 11:20/M

Female 65 to 69

Place Name City Age Overall Total Time Pace
1 Mary Harrison 66 96 1:03:44.0 10:16/M

Female 75 to 79

Place Name City Age Overall Total Time Pace
1 Ellen Nitz Brighton MI 75 97 1:04:02.6 10:19/M

Half Marathon
Male Open Winners

Place Name City Age Overall Total Time Pace
1 Simon Gore South Lyon MI 34 1 1:22:41.2 6:19/M

Male Masters Winners

Place Name City Age Overall Total Time Pace
1 Casey Hayes 44 5 1:30:18.0 6:54/M

Male 16 to 19

Place Name City Age Overall Total Time Pace
1 Paul Domanico 19 2 1:24:47.9 6:28/M
2 Bryce Vanasselt 18 4 1:30:15.3 6:53/M

Male 20 to 24

Place Name City Age Overall Total Time Pace
1 Jordan Schaefer 23 3 1:25:21.8 6:31/M
2 Alex Hoorn 20 8 1:31:45.4 7:00/M

Male 25 to 29

Place Name City Age Overall Total Time Pace
1 Eric Engel 29 43 2:48:08.8 12:50/M

Male 30 to 34

Place Name City Age Overall Total Time Pace
1 Nicholas Godlesky Flushing MI 31 23 1:55:52.8 8:51/M

Male 35 to 39

Place Name City Age Overall Total Time Pace
1 Aaron Boynton Livonia MI 39 7 1:31:08.6 6:57/M
2 Robert Gronemeyer 35 15 1:47:47.2 8:14/M

Male 40 to 44

Place Name City Age Overall Total Time Pace
1 Scott Miller South Lyon MI 42 18 1:51:42.1 8:32/M
2 Mack Donbie 42 27 1:59:54.5 9:09/M
3 Sam Bailo 44 37 2:12:48.3 10:08/M

Male 45 to 49

Place Name City Age Overall Total Time Pace
1 Todd McNary 46 40 2:23:51.8 10:59/M

Male 50 to 54

Place Name City Age Overall Total Time Pace
1 Robert Cook Mason MI 54 6 1:30:20.3 6:54/M
2 Dean Fuller 51 11 1:38:43.5 7:32/M
3 Steve Penkevich 53 12 1:43:29.1 7:54/M
4 Andy Rienstra 50 21 1:55:36.5 8:49/M
5 Brian Richardson Brighton 50 24 1:58:23.5 9:02/M
6 Stephen Sherman 52 25 1:58:32.0 9:03/M
7 Chris Bussa 50 26 1:59:19.8 9:06/M
8 John Giusti 50 30 2:04:43.1 9:31/M
9 Jim Zittel Waterford MI 52 34 2:10:53.7 9:59/M

Male 55 to 59

Place Name City Age Overall Total Time Pace
1 Kevin Leddy Livonia MI 55 9 1:36:58.9 7:24/M
2 Jerry Roersma 57 10 1:37:52.0 7:28/M
3 David Shears 55 33 2:10:22.3 9:57/M

Male 60 to 64

Place Name City Age Overall Total Time Pace
1 Mike McGuire Plymouth MI 62 13 1:43:50.1 7:56/M
2 Paul Bortell 60 16 1:47:52.4 8:14/M
3 Steve Spalding Roseville MI 60 28 2:02:32.2 9:21/M
4 Leonard Constantine New Baltimore MI 62 39 2:21:04.7 10:46/M

Male 65 to 69

Place Name City Age Overall Total Time Pace
1 David Huck 67 20 1:53:46.6 8:41/M
2 Robert Hyde 67 44 3:06:49.2 14:16/M

Female Open Winners

Place Name City Age Overall Total Time Pace
1 Emily Larocque 48 14 1:44:15.0 7:57/M

Female Masters Winners

Place Name City Age Overall Total Time Pace
1 Jessica Shehab 40 17 1:49:58.2 8:24/M

Female 30 to 34

Place Name City Age Overall Total Time Pace
1 Natalie Graiver 30 35 2:10:55.4 10:00/M
2 Brianne Naudi Howell MI 31 38 2:15:15.0 10:19/M
3 Galen Dunleavy 30 42 2:29:13.6 11:23/M

Female 35 to 39

Place Name City Age Overall Total Time Pace
1 Jennifer Bluhm Linden MI 36 22 1:55:52.5 8:51/M

Female 40 to 44

Place Name City Age Overall Total Time Pace
1 Susan Filipek 41 19 1:53:29.2 8:40/M
2 Crissy McNulty South Lyon MI 41 29 2:03:32.9 9:26/M
3 Tamaki McNary 44 41 2:24:49.4 11:03/M

Female 50 to 54

Place Name City Age Overall Total Time Pace
1 Debra Rojewski Fowlerville MI 50 31 2:08:48.6 9:50/M
2 Jennifer Perkins Clawson MI 51 36 2:10:57.1 10:00/M

Female 55 to 59

Place Name City Age Overall Total Time Pace
1 Mary Shears 55 32 2:10:21.2 9:57/M